createdAt,value
2018-07-17T00:00:50.691Z,100007.89
2018-07-17T00:03:19.981Z,100011.53
2018-07-17T00:05:49.298Z,100008.50
2018-07-17T00:08:18.550Z,100011.75
2018-07-17T00:10:47.898Z,100004.27
2018-07-17T00:13:17.068Z,100011.73
2018-07-17T00:15:46.379Z,100010.45
2018-07-17T00:18:15.683Z,100017.11
2018-07-17T00:20:45.301Z,100015.31
2018-07-17T00:23:14.687Z,100020.30
2018-07-17T00:25:44.135Z,100011.81
2018-07-17T00:28:13.369Z,100012.49
2018-07-17T00:30:42.730Z,100011.59
2018-07-17T00:33:12.117Z,100010.27
2018-07-17T00:35:41.417Z,100002.80
2018-07-17T00:38:10.717Z,100009.52
2018-07-17T00:40:40.045Z,100011.40
2018-07-17T00:43:09.650Z,100008.94
2018-07-17T00:45:39.119Z,100006.75
2018-07-17T00:48:08.490Z,100013.13
2018-07-17T00:50:37.734Z,100011.38
2018-07-17T00:53:07.036Z,100007.84
2018-07-17T00:55:36.443Z,100000.74
2018-07-17T00:58:05.739Z,99999.83
2018-07-17T01:00:40.362Z,100007.98
2018-07-17T01:03:14.789Z,100005.78
2018-07-17T01:05:48.982Z,100005.19
2018-07-17T01:08:23.190Z,100004.72
2018-07-17T01:10:57.392Z,100007.20
2018-07-17T01:13:31.599Z,100005.18
2018-07-17T01:16:01.049Z,100006.16
2018-07-17T01:18:30.330Z,100002.59
2018-07-17T01:20:59.662Z,100013.52
2018-07-17T01:23:29.030Z,100014.13
2018-07-17T01:25:58.282Z,100012.16
2018-07-17T01:28:27.528Z,100010.84
2018-07-17T01:30:56.840Z,100007.17
2018-07-17T01:33:26.213Z,100007.81
2018-07-17T01:35:55.440Z,100009.38
2018-07-17T01:38:24.831Z,100008.00
2018-07-17T01:40:54.049Z,100009.42
2018-07-17T01:43:23.421Z,100000.56
2018-07-17T01:45:52.861Z,99998.03
2018-07-17T01:48:22.262Z,100000.22
2018-07-17T01:50:51.793Z,100006.28
2018-07-17T01:53:21.217Z,99999.42
2018-07-17T01:55:50.475Z,100000.47
2018-07-17T01:58:20.015Z,100001.03
2018-07-17T02:00:49.286Z,99998.20
2018-07-17T02:03:18.569Z,99991.53
2018-07-17T02:05:47.991Z,99993.00
2018-07-17T02:08:17.381Z,99996.65
2018-07-17T02:10:46.698Z,99997.18
2018-07-17T02:13:16.054Z,99999.16
2018-07-17T02:15:45.207Z,99993.13
2018-07-17T02:18:14.492Z,99994.27
2018-07-17T02:20:43.808Z,99996.14
2018-07-17T02:23:13.079Z,99989.05
2018-07-17T02:25:42.410Z,99990.84
2018-07-17T02:28:11.670Z,99989.66
2018-07-17T02:30:40.884Z,99989.47
2018-07-17T02:33:10.147Z,99990.70
2018-07-17T02:35:39.805Z,99987.48
2018-07-17T02:38:09.507Z,99994.37
2018-07-17T02:40:39.016Z,99998.51
2018-07-17T02:43:08.519Z,99997.03
2018-07-17T02:45:37.802Z,99999.22
2018-07-17T02:48:07.112Z,99999.94
2018-07-17T02:50:36.419Z,99996.33
2018-07-17T02:53:05.727Z,99995.83
2018-07-17T02:55:35.020Z,100003.52
2018-07-17T02:58:04.416Z,100002.59
2018-07-17T03:00:34.030Z,100018.40
2018-07-17T03:03:03.310Z,100021.56
2018-07-17T03:05:32.617Z,100024.19
2018-07-17T03:08:03.029Z,100029.53
2018-07-17T03:10:32.300Z,100035.41
2018-07-17T03:13:01.654Z,100037.50
2018-07-17T03:15:30.961Z,100038.55
2018-07-17T03:18:00.226Z,100036.84
2018-07-17T03:20:29.432Z,100046.20
2018-07-17T03:22:58.670Z,100035.48
2018-07-17T03:25:27.828Z,100039.00
2018-07-17T03:27:57.183Z,100042.00
2018-07-17T03:30:26.533Z,100046.23
2018-07-17T03:32:55.731Z,100052.68
2018-07-17T03:35:24.989Z,100045.97
2018-07-17T03:37:54.240Z,100046.43
2018-07-17T03:40:23.397Z,100050.42
2018-07-17T03:42:52.754Z,100053.69
2018-07-17T03:45:22.026Z,100057.98
2018-07-17T03:47:51.494Z,100068.83
2018-07-17T03:50:20.612Z,100070.31
2018-07-17T03:52:49.874Z,100072.62
2018-07-17T03:55:19.136Z,100072.55
2018-07-17T03:57:48.559Z,100071.54
2018-07-17T04:00:17.840Z,100078.89
2018-07-17T04:02:47.297Z,100068.33
2018-07-17T04:05:16.634Z,100073.52
2018-07-17T04:07:45.885Z,100073.25
2018-07-17T04:10:15.142Z,100078.91
2018-07-17T04:12:44.365Z,100080.73
2018-07-17T04:15:13.607Z,100083.11
2018-07-17T04:17:42.969Z,100092.17
2018-07-17T04:20:12.212Z,100089.79
2018-07-17T04:22:41.438Z,100086.13
2018-07-17T04:25:10.604Z,100085.06
2018-07-17T04:27:39.946Z,100092.00
2018-07-17T04:30:09.129Z,100087.48
2018-07-17T04:32:38.458Z,100090.23
2018-07-17T04:35:07.706Z,100090.41
2018-07-17T04:37:36.890Z,100090.77
2018-07-17T04:40:06.511Z,100085.66
2018-07-17T04:42:35.750Z,100089.30
2018-07-17T04:45:04.847Z,100090.90
2018-07-17T04:47:34.155Z,100089.41
2018-07-17T04:50:03.422Z,100097.42
2018-07-17T04:52:32.696Z,100102.87
2018-07-17T04:55:01.810Z,100103.32
2018-07-17T04:57:31.097Z,100098.78
2018-07-17T05:00:00.321Z,100092.98
2018-07-17T05:02:29.758Z,100094.63
2018-07-17T05:04:59.041Z,100098.54
2018-07-17T05:07:28.279Z,100096.53
2018-07-17T05:09:57.544Z,100099.08
2018-07-17T05:12:27.056Z,100097.93
2018-07-17T05:14:56.328Z,100094.30
2018-07-17T05:17:25.688Z,100102.69
2018-07-17T05:19:55.616Z,100104.52
2018-07-17T05:22:25.396Z,100111.28
2018-07-17T05:24:54.610Z,100112.16
2018-07-17T05:27:23.959Z,100110.05
2018-07-17T05:29:53.206Z,100114.70
2018-07-17T05:32:22.650Z,100111.31
2018-07-17T05:34:51.990Z,100117.20
2018-07-17T05:37:21.315Z,100118.13
2018-07-17T05:39:50.598Z,100125.84
2018-07-17T05:42:19.888Z,100128.63
2018-07-17T05:44:49.165Z,100135.79
2018-07-17T05:47:18.505Z,100131.55
2018-07-17T05:49:47.858Z,100136.72
2018-07-17T05:52:17.078Z,100139.21
2018-07-17T05:54:46.446Z,100138.27
2018-07-17T05:57:15.686Z,100147.63
2018-07-17T05:59:45.106Z,100142.20
2018-07-17T06:02:14.434Z,100148.31
2018-07-17T06:04:43.666Z,100142.02
2018-07-17T06:07:12.911Z,100142.84
2018-07-17T06:09:42.187Z,100142.89
2018-07-17T06:12:11.526Z,100139.03
2018-07-17T06:14:40.785Z,100147.52
2018-07-17T06:17:10.040Z,100139.59
2018-07-17T06:19:39.303Z,100139.69
2018-07-17T06:22:08.706Z,100135.03
2018-07-17T06:24:37.907Z,100138.66
2018-07-17T06:27:07.340Z,100134.46
2018-07-17T06:29:36.581Z,100146.92
2018-07-17T06:32:05.859Z,100145.06
2018-07-17T06:34:35.062Z,100140.20
2018-07-17T06:37:04.298Z,100144.83
2018-07-17T06:39:33.562Z,100150.84
2018-07-17T06:42:02.820Z,100147.23
2018-07-17T06:44:32.193Z,100140.63
2018-07-17T06:47:01.603Z,100142.72
2018-07-17T06:49:30.844Z,100142.43
2018-07-17T06:52:00.070Z,100143.37
2018-07-17T06:54:29.463Z,100146.88
2018-07-17T06:56:58.698Z,100149.66
2018-07-17T06:59:27.913Z,100149.18
2018-07-17T07:01:57.290Z,100151.19
2018-07-17T07:04:26.642Z,100149.50
2018-07-17T07:06:55.891Z,100150.72
2018-07-17T07:09:26.729Z,100151.38
2018-07-17T07:11:56.006Z,100148.30
2018-07-17T07:14:25.352Z,100150.99
2018-07-17T07:16:54.603Z,100152.35
2018-07-17T07:19:23.858Z,100151.00
2018-07-17T07:21:53.048Z,100152.56
2018-07-17T07:24:22.337Z,100150.69
2018-07-17T07:26:51.543Z,100160.72
2018-07-17T07:29:20.770Z,100156.66
2018-07-17T07:31:50.037Z,100157.92
2018-07-17T07:34:19.647Z,100150.36
2018-07-17T07:36:49.355Z,100148.05
2018-07-17T07:39:18.881Z,100142.22
2018-07-17T07:41:48.340Z,100148.05
2018-07-17T07:44:17.721Z,100150.16
2018-07-17T07:46:47.141Z,100147.20
2018-07-17T07:49:17.112Z,100145.00
2018-07-17T07:51:46.358Z,100143.88
2018-07-17T07:54:15.602Z,100150.94
2018-07-17T07:56:45.047Z,100146.27
2018-07-17T07:59:14.304Z,100139.15
2018-07-17T08:01:43.482Z,100147.59
2018-07-17T08:04:12.898Z,100145.83
2018-07-17T08:06:42.472Z,100149.77
2018-07-17T08:09:11.750Z,100150.66
2018-07-17T08:11:40.993Z,100139.42
2018-07-17T08:14:10.298Z,100145.31
2018-07-17T08:16:39.574Z,100151.42
2018-07-17T08:19:09.007Z,100145.82
2018-07-17T08:21:38.191Z,100145.75
2018-07-17T08:24:08.055Z,100148.13
2018-07-17T08:26:40.277Z,100152.77
2018-07-17T08:29:09.601Z,100148.67
2018-07-17T08:31:38.808Z,100143.92
2018-07-17T08:34:07.979Z,100140.58
2018-07-17T08:36:37.289Z,100134.67
2018-07-17T08:39:08.286Z,100141.34
2018-07-17T08:41:37.528Z,100140.27
2018-07-17T08:44:06.746Z,100144.45
2018-07-17T08:46:36.242Z,100138.94
2018-07-17T08:49:05.595Z,100141.24
2018-07-17T08:51:34.944Z,100143.95
2018-07-17T08:54:04.398Z,100149.50
2018-07-17T08:56:33.615Z,100152.81
2018-07-17T08:59:02.842Z,100154.81
2018-07-17T09:01:32.148Z,100164.00
2018-07-17T09:04:01.449Z,100158.94
2018-07-17T09:06:30.595Z,100161.57
2018-07-17T09:08:59.869Z,100162.16
2018-07-17T09:11:29.131Z,100157.72
2018-07-17T09:13:58.316Z,100155.63
2018-07-17T09:16:27.575Z,100160.61
2018-07-17T09:18:56.919Z,100163.73
2018-07-17T09:21:26.259Z,100158.53
2018-07-17T09:23:55.654Z,100167.66
2018-07-17T09:26:24.947Z,100168.88
2018-07-17T09:28:54.235Z,100170.11
2018-07-17T09:31:23.501Z,100167.39
2018-07-17T09:33:52.944Z,100157.66
2018-07-17T09:36:22.557Z,100164.98
2018-07-17T09:38:52.230Z,100161.38
2018-07-17T09:41:22.042Z,100159.24
2018-07-17T09:43:51.279Z,100167.16
2018-07-17T09:46:20.546Z,100158.82
2018-07-17T09:48:49.858Z,100160.93
2018-07-17T09:51:19.161Z,100158.11
2018-07-17T09:53:48.470Z,100156.14
2018-07-17T09:56:17.755Z,100158.37
2018-07-17T09:58:47.110Z,100157.77
2018-07-17T10:01:21.906Z,100158.58
2018-07-17T10:03:51.241Z,100166.97
2018-07-17T10:06:20.508Z,100162.63
2018-07-17T10:08:49.820Z,100162.72
2018-07-17T10:11:19.050Z,100159.91
2018-07-17T10:13:48.422Z,100152.30
2018-07-17T10:16:17.734Z,100168.34
2018-07-17T10:18:47.024Z,100167.20
2018-07-17T10:21:16.225Z,100162.96
2018-07-17T10:23:45.528Z,100156.88
2018-07-17T10:26:14.805Z,100156.59
2018-07-17T10:28:44.160Z,100164.83
2018-07-17T10:31:13.482Z,100164.43
2018-07-17T10:33:42.723Z,100165.59
2018-07-17T10:36:12.015Z,100169.80
2018-07-17T10:38:41.353Z,100178.30
2018-07-17T10:41:10.754Z,100176.52
2018-07-17T10:43:40.105Z,100172.41
2018-07-17T10:46:09.445Z,100162.49
2018-07-17T10:48:38.700Z,100168.27
2018-07-17T10:51:08.031Z,100161.34
2018-07-17T10:53:37.310Z,100152.05
2018-07-17T10:56:06.594Z,100140.86
2018-07-17T10:58:36.019Z,100146.59
2018-07-17T11:01:06.232Z,100148.34
2018-07-17T11:03:35.523Z,100151.85
2018-07-17T11:06:04.969Z,100139.92
2018-07-17T11:08:34.273Z,100143.11
2018-07-17T11:11:03.751Z,100139.47
2018-07-17T11:13:33.058Z,100139.88
2018-07-17T11:16:02.297Z,100140.02
2018-07-17T11:18:31.447Z,100136.45
2018-07-17T11:21:00.774Z,100127.33
2018-07-17T11:23:30.026Z,100127.84
2018-07-17T11:25:59.171Z,100121.73
2018-07-17T11:28:28.394Z,100129.88
2018-07-17T11:30:57.563Z,100118.53
2018-07-17T11:33:26.885Z,100118.58
2018-07-17T11:35:56.173Z,100119.61
2018-07-17T11:38:25.314Z,100123.34
2018-07-17T11:40:54.578Z,100122.09
2018-07-17T11:43:23.845Z,100122.11
2018-07-17T11:45:53.158Z,100121.63
2018-07-17T11:48:22.433Z,100118.03
2018-07-17T11:50:51.659Z,100114.62
2018-07-17T11:53:20.978Z,100104.63
2018-07-17T11:55:50.345Z,100102.64
2018-07-17T11:58:19.650Z,100110.66
2018-07-17T12:00:49.106Z,100105.63
2018-07-17T12:03:18.436Z,100105.86
2018-07-17T12:05:47.986Z,100108.59
2018-07-17T12:08:17.234Z,100100.34
2018-07-17T12:10:46.474Z,100107.72
2018-07-17T12:13:15.734Z,100104.13
2018-07-17T12:15:45.092Z,100100.59
2018-07-17T12:18:14.361Z,100108.42
2018-07-17T12:20:43.687Z,100099.83
2018-07-17T12:23:13.046Z,100104.92
2018-07-17T12:25:42.367Z,100092.31
2018-07-17T12:28:11.749Z,100091.61
2018-07-17T12:30:41.639Z,100085.64
2018-07-17T12:33:11.293Z,100096.87
2018-07-17T12:35:40.703Z,100089.27
2018-07-17T12:38:10.086Z,100090.63
2018-07-17T12:40:39.397Z,100088.34
2018-07-17T12:43:08.666Z,100089.33
2018-07-17T12:45:38.024Z,100083.63
2018-07-17T12:48:07.431Z,100091.89
2018-07-17T12:50:36.710Z,100086.88
2018-07-17T12:53:05.945Z,100088.20
2018-07-17T12:55:35.224Z,100089.26
2018-07-17T12:58:04.462Z,100077.95
2018-07-17T13:00:33.779Z,100078.63
2018-07-17T13:03:02.879Z,100079.05
2018-07-17T13:05:32.486Z,100075.95
2018-07-17T13:08:01.794Z,100079.14
2018-07-17T13:10:31.246Z,100075.06
2018-07-17T13:13:00.472Z,100079.08
2018-07-17T13:15:29.754Z,100074.08
2018-07-17T13:17:59.100Z,100090.92
2018-07-17T13:20:28.410Z,100085.14
2018-07-17T13:22:57.756Z,100084.36
2018-07-17T13:25:27.024Z,100080.17
2018-07-17T13:27:56.932Z,100081.74
2018-07-17T13:30:26.822Z,100083.59
2018-07-17T13:32:56.063Z,100093.23
2018-07-17T13:35:25.335Z,100096.98
2018-07-17T13:37:54.617Z,100098.49
2018-07-17T13:40:23.851Z,100109.45
2018-07-17T13:42:53.111Z,100103.66
2018-07-17T13:45:22.358Z,100107.02
2018-07-17T13:47:51.722Z,100121.48
2018-07-17T13:50:21.126Z,100116.36
2018-07-17T13:52:50.333Z,100116.97
2018-07-17T13:55:19.785Z,100127.55
2018-07-17T13:57:49.014Z,100121.06
2018-07-17T14:00:18.375Z,100124.33
2018-07-17T14:02:47.626Z,100124.70
2018-07-17T14:05:16.984Z,100126.64
2018-07-17T14:07:46.215Z,100126.84
2018-07-17T14:10:15.514Z,100121.80
2018-07-17T14:12:44.814Z,100126.98
2018-07-17T14:15:14.015Z,100132.88
2018-07-17T14:17:43.361Z,100133.75
2018-07-17T14:20:12.638Z,100127.50
2018-07-17T14:22:42.040Z,100134.62
2018-07-17T14:25:11.314Z,100132.92
2018-07-17T14:27:40.641Z,100131.20
2018-07-17T14:30:09.920Z,100145.25
2018-07-17T14:32:39.234Z,100141.64
2018-07-17T14:35:08.509Z,100141.42
2018-07-17T14:37:38.272Z,100141.53
2018-07-17T14:40:08.361Z,100156.55
2018-07-17T14:42:37.660Z,100150.69
2018-07-17T14:45:07.186Z,100153.19
2018-07-17T14:47:36.511Z,100146.02
2018-07-17T14:50:05.865Z,100150.31
2018-07-17T14:52:35.205Z,100153.63
2018-07-17T14:55:04.542Z,100157.55
2018-07-17T14:57:33.674Z,100149.89
2018-07-17T15:00:02.890Z,100156.07
2018-07-17T15:02:32.191Z,100165.05
2018-07-17T15:05:01.374Z,100155.73
2018-07-17T15:07:30.805Z,100149.58
2018-07-17T15:10:00.107Z,100153.75
2018-07-17T15:12:29.783Z,100151.90
2018-07-17T15:14:59.090Z,100155.55
2018-07-17T15:17:28.522Z,100154.69
2018-07-17T15:19:57.863Z,100153.63
2018-07-17T15:22:27.684Z,100150.97
2018-07-17T15:24:56.882Z,100149.39
2018-07-17T15:27:26.113Z,100151.03
2018-07-17T15:29:55.369Z,100147.77
2018-07-17T15:32:24.864Z,100141.20
2018-07-17T15:34:53.984Z,100135.03
2018-07-17T15:37:23.221Z,100142.27
2018-07-17T15:39:52.396Z,100132.48
2018-07-17T15:42:21.725Z,100132.39
2018-07-17T15:44:50.967Z,100139.45
2018-07-17T15:47:20.680Z,100134.55
2018-07-17T15:49:50.104Z,100135.41
2018-07-17T15:52:19.451Z,100133.31
2018-07-17T15:54:48.745Z,100136.26
2018-07-17T15:57:18.130Z,100134.03
2018-07-17T15:59:47.462Z,100136.00
2018-07-17T16:02:16.845Z,100141.16
2018-07-17T16:04:46.254Z,100139.77
2018-07-17T16:07:16.186Z,100139.23
2018-07-17T16:09:45.403Z,100141.92
2018-07-17T16:12:14.677Z,100139.59
2018-07-17T16:14:44.141Z,100144.20
2018-07-17T16:17:13.366Z,100137.34
2018-07-17T16:19:42.763Z,100144.69
2018-07-17T16:22:12.164Z,100138.87
2018-07-17T16:24:41.658Z,100134.46
2018-07-17T16:27:11.271Z,100130.73
2018-07-17T16:29:40.950Z,100136.82
2018-07-17T16:32:10.545Z,100129.55
2018-07-17T16:34:39.895Z,100128.95
2018-07-17T16:37:09.209Z,100128.96
2018-07-17T16:39:38.503Z,100133.05
2018-07-17T16:42:07.903Z,100131.30
2018-07-17T16:44:37.207Z,100131.00
2018-07-17T16:47:06.711Z,100129.88
2018-07-17T16:49:36.021Z,100125.86
2018-07-17T16:52:05.303Z,100130.66
2018-07-17T16:54:34.802Z,100125.48
2018-07-17T16:57:04.126Z,100126.52
2018-07-17T16:59:33.418Z,100121.56
2018-07-17T17:02:02.726Z,100117.12
2018-07-17T17:04:32.021Z,100124.95
2018-07-17T17:07:01.441Z,100125.72
2018-07-17T17:09:30.681Z,100127.55
2018-07-17T17:11:59.902Z,100130.88
2018-07-17T17:14:29.157Z,100132.83
2018-07-17T17:16:58.437Z,100129.00
2018-07-17T17:19:27.672Z,100130.78
2018-07-17T17:21:56.941Z,100132.39
2018-07-17T17:24:26.405Z,100134.77
2018-07-17T17:26:55.542Z,100139.56
2018-07-17T17:29:24.817Z,100137.98
2018-07-17T17:31:54.244Z,100138.28
2018-07-17T17:34:23.570Z,100135.66
2018-07-17T17:36:52.820Z,100131.77
2018-07-17T17:39:22.215Z,100132.02
2018-07-17T17:41:51.410Z,100137.25
2018-07-17T17:44:20.630Z,100133.44
2018-07-17T17:46:49.858Z,100140.05
2018-07-17T17:49:19.318Z,100138.95
2018-07-17T17:51:48.657Z,100141.48
2018-07-17T17:54:17.928Z,100139.52
2018-07-17T17:56:47.219Z,100142.56
2018-07-17T17:59:16.734Z,100141.75
2018-07-17T18:01:46.124Z,100151.40
2018-07-17T18:04:15.443Z,100150.27
2018-07-17T18:06:44.636Z,100154.16
2018-07-17T18:09:13.925Z,100153.31
2018-07-17T18:11:43.202Z,100156.08
2018-07-17T18:14:12.407Z,100147.52
2018-07-17T18:16:41.764Z,100153.03
2018-07-17T18:19:11.063Z,100160.21
2018-07-17T18:21:40.316Z,100161.59
2018-07-17T18:24:09.630Z,100160.75
2018-07-17T18:26:39.094Z,100159.11
2018-07-17T18:29:08.512Z,100160.77
2018-07-17T18:31:37.845Z,100164.61
2018-07-17T18:34:07.500Z,100165.73
2018-07-17T18:36:36.729Z,100175.36
2018-07-17T18:39:07.933Z,100169.32
2018-07-17T18:41:37.378Z,100168.22
2018-07-17T18:44:06.991Z,100179.17
2018-07-17T18:46:36.304Z,100180.02
2018-07-17T18:49:05.630Z,100181.06
2018-07-17T18:51:34.858Z,100183.78
2018-07-17T18:54:04.131Z,100177.09
2018-07-17T18:56:33.381Z,100183.15
2018-07-17T18:59:02.714Z,100194.09
2018-07-17T19:01:32.925Z,100206.41
2018-07-17T19:04:02.291Z,100208.08
2018-07-17T19:06:31.493Z,100221.44
2018-07-17T19:09:00.757Z,100226.11
2018-07-17T19:11:30.074Z,100229.93
2018-07-17T19:13:59.433Z,100232.83
2018-07-17T19:16:29.980Z,100226.57
2018-07-17T19:18:59.280Z,100238.25
2018-07-17T19:21:28.558Z,100240.47
2018-07-17T19:23:57.794Z,100249.35
2018-07-17T19:26:27.034Z,100249.17
2018-07-17T19:28:56.270Z,100251.27
2018-07-17T19:31:25.507Z,100248.92
2018-07-17T19:33:54.900Z,100244.67
2018-07-17T19:36:24.259Z,100252.75
2018-07-17T19:38:53.660Z,100255.64
2018-07-17T19:41:22.974Z,100255.25
2018-07-17T19:43:52.431Z,100256.41
2018-07-17T19:46:21.611Z,100260.36
2018-07-17T19:48:50.968Z,100251.85
2018-07-17T19:51:20.278Z,100258.98
2018-07-17T19:53:49.466Z,100266.45
2018-07-17T19:56:18.776Z,100266.98
2018-07-17T19:58:48.085Z,100268.64
2018-07-17T20:01:17.334Z,100271.22
2018-07-17T20:03:46.582Z,100272.33
2018-07-17T20:06:15.942Z,100271.95
2018-07-17T20:08:45.284Z,100280.67
2018-07-17T20:11:14.537Z,100276.97
2018-07-17T20:13:43.790Z,100271.25
2018-07-17T20:16:13.061Z,100272.61
2018-07-17T20:18:42.411Z,100282.08
2018-07-17T20:21:11.833Z,100283.34
2018-07-17T20:23:41.185Z,100286.84
2018-07-17T20:26:10.488Z,100288.45
2018-07-17T20:28:39.924Z,100287.04
2018-07-17T20:31:09.181Z,100288.42
2018-07-17T20:33:38.641Z,100283.81
2018-07-17T20:36:07.893Z,100288.03
2018-07-17T20:38:37.397Z,100289.95
2018-07-17T20:41:06.778Z,100288.38
2018-07-17T20:43:36.016Z,100298.72
2018-07-17T20:46:05.335Z,100299.55
2018-07-17T20:48:34.618Z,100301.27
2018-07-17T20:51:03.850Z,100300.36
2018-07-17T20:53:33.187Z,100295.95
2018-07-17T20:56:02.479Z,100297.67
2018-07-17T20:58:31.875Z,100289.38
2018-07-17T21:01:01.175Z,100296.65
2018-07-17T21:03:30.492Z,100295.48
2018-07-17T21:05:59.788Z,100294.78
2018-07-17T21:08:29.102Z,100293.30
2018-07-17T21:10:58.358Z,100300.27
2018-07-17T21:13:31.142Z,100295.66
2018-07-17T21:16:00.434Z,100290.27
2018-07-17T21:18:29.799Z,100296.48
2018-07-17T21:20:59.093Z,100298.16
2018-07-17T21:23:28.492Z,100293.78
2018-07-17T21:25:58.667Z,100302.09
2018-07-17T21:28:28.121Z,100303.00
2018-07-17T21:30:57.877Z,100300.44
2018-07-17T21:33:27.086Z,100299.77
2018-07-17T21:35:56.513Z,100303.98
2018-07-17T21:38:25.796Z,100298.52
2018-07-17T21:40:55.070Z,100310.70
2018-07-17T21:43:24.274Z,100302.84
2018-07-17T21:45:53.550Z,100301.76
2018-07-17T21:48:22.801Z,100307.05
2018-07-17T21:50:52.055Z,100306.85
2018-07-17T21:53:21.420Z,100308.46
2018-07-17T21:55:50.645Z,100304.96
2018-07-17T21:58:19.905Z,100312.39
2018-07-17T22:00:49.152Z,100306.34
2018-07-17T22:03:18.490Z,100312.20
2018-07-17T22:05:47.639Z,100316.90
2018-07-17T22:08:16.906Z,100312.56
2018-07-17T22:10:46.335Z,100316.59
2018-07-17T22:13:16.393Z,100313.97
2018-07-17T22:15:46.039Z,100306.08
2018-07-17T22:18:15.838Z,100312.64
2018-07-17T22:20:45.199Z,100312.64
2018-07-17T22:23:14.570Z,100312.91
2018-07-17T22:25:43.863Z,100307.92
2018-07-17T22:28:13.062Z,100313.75
2018-07-17T22:30:42.471Z,100314.08
2018-07-17T22:33:11.746Z,100307.06
2018-07-17T22:35:40.974Z,100310.50
2018-07-17T22:38:10.249Z,100311.30
2018-07-17T22:40:40.091Z,100310.34
2018-07-17T22:43:09.363Z,100310.34
2018-07-17T22:45:38.651Z,100320.78
2018-07-17T22:48:07.793Z,100324.56
2018-07-17T22:50:37.217Z,100322.33
2018-07-17T22:53:06.463Z,100321.01
2018-07-17T22:55:35.705Z,100323.28
2018-07-17T22:58:04.934Z,100321.35
2018-07-17T23:00:34.211Z,100321.61
2018-07-17T23:03:03.470Z,100327.33
2018-07-17T23:05:32.782Z,100323.12
2018-07-17T23:08:02.030Z,100320.47
2018-07-17T23:10:31.270Z,100329.27
2018-07-17T23:13:00.418Z,100323.69
2018-07-17T23:15:29.694Z,100329.84
2018-07-17T23:17:58.957Z,100321.60
2018-07-17T23:20:28.163Z,100321.98
2018-07-17T23:22:58.420Z,100334.36
2018-07-17T23:25:28.900Z,100335.30
2018-07-17T23:27:58.654Z,100336.72
2018-07-17T23:30:27.961Z,100337.02
2018-07-17T23:32:57.247Z,100339.50
2018-07-17T23:35:26.811Z,100333.28
2018-07-17T23:37:56.027Z,100338.95
2018-07-17T23:40:25.476Z,100339.56
2018-07-17T23:42:54.885Z,100347.11
2018-07-17T23:45:24.176Z,100342.35
2018-07-17T23:47:53.736Z,100345.64
2018-07-17T23:50:23.460Z,100348.11
2018-07-17T23:52:52.854Z,100355.81
2018-07-17T23:55:22.180Z,100345.52
2018-07-17T23:57:51.598Z,100348.72
